createdAt,value
2019-02-28T00:01:29.317Z,29.50
2019-02-28T00:03:59.008Z,30.60
2019-02-28T00:08:57.252Z,32.87
2019-02-28T00:11:26.346Z,32.73
2019-02-28T00:13:55.845Z,30.63
2019-02-28T00:16:25.617Z,32.40
2019-02-28T00:19:13.496Z,32.07
2019-02-28T00:21:42.143Z,33.67
2019-02-28T00:24:30.721Z,32.93
2019-02-28T00:26:59.459Z,32.10
2019-02-28T00:29:28.077Z,34.40
2019-02-28T00:32:16.145Z,33.20
2019-02-28T00:34:44.715Z,35.43
2019-02-28T00:37:32.663Z,35.23
2019-02-28T00:40:01.771Z,34.80
2019-02-28T00:42:30.443Z,35.03
2019-02-28T00:45:02.369Z,33.80
2019-02-28T00:49:58.829Z,34.87
2019-02-28T00:52:46.744Z,35.07
2019-02-28T00:55:34.691Z,33.43
2019-02-28T00:58:22.610Z,34.67
2019-02-28T01:00:51.189Z,36.53
2019-02-28T01:03:39.137Z,36.30
2019-02-28T01:06:10.570Z,35.43
2019-02-28T01:11:07.344Z,35.97
2019-02-28T01:16:43.221Z,37.90
2019-02-28T01:19:31.141Z,36.30
2019-02-28T01:22:19.147Z,35.00
2019-02-28T01:24:48.032Z,36.23
2019-02-28T01:27:17.304Z,35.73
2019-02-28T01:32:22.418Z,36.57
2019-02-28T01:35:10.368Z,35.67
2019-02-28T01:37:38.984Z,35.37
2019-02-28T01:40:07.619Z,34.20
2019-02-28T01:42:55.547Z,35.43
2019-02-28T01:45:44.303Z,36.10
2019-02-28T01:48:13.043Z,36.23
2019-02-28T01:51:01.724Z,36.97
2019-02-28T01:53:50.416Z,37.43
2019-02-28T01:56:34.286Z,34.10
2019-02-28T01:59:14.987Z,38.00
2019-02-28T02:01:43.858Z,37.90
2019-02-28T02:04:31.908Z,37.30
2019-02-28T02:07:00.536Z,36.40
2019-02-28T02:09:29.411Z,37.43
2019-02-28T02:11:58.909Z,36.40
2019-02-28T02:14:47.010Z,37.87
2019-02-28T02:17:35.476Z,37.73
2019-02-28T02:22:53.752Z,36.10
2019-02-28T02:25:41.700Z,38.77
2019-02-28T02:28:29.508Z,37.70
2019-02-28T02:31:17.437Z,35.90
2019-02-28T02:33:50.893Z,36.00
2019-02-28T02:39:05.072Z,35.53
2019-02-28T02:41:53.129Z,36.13
2019-02-28T02:44:22.037Z,37.30
2019-02-28T02:47:09.952Z,36.00
2019-02-28T02:49:58.182Z,38.60
2019-02-28T02:52:30.462Z,40.07
2019-02-28T02:55:16.915Z,38.60
2019-02-28T02:57:50.671Z,37.83
2019-02-28T03:00:35.705Z,37.50
2019-02-28T03:03:23.869Z,37.07
2019-02-28T03:06:14.013Z,39.70
2019-02-28T03:11:14.015Z,38.93
2019-02-28T03:14:02.307Z,38.67
2019-02-28T03:16:50.459Z,38.53
2019-02-28T03:19:19.147Z,39.67
2019-02-28T03:21:51.878Z,40.20
2019-02-28T03:26:47.010Z,40.97
2019-02-28T03:29:34.928Z,40.80
2019-02-28T03:32:03.504Z,43.33
2019-02-28T03:34:32.363Z,40.80
2019-02-28T03:37:00.991Z,41.10
2019-02-28T03:39:29.658Z,41.00
2019-02-28T03:41:58.262Z,42.43
2019-02-28T03:44:27.169Z,39.43
2019-02-28T03:47:15.103Z,40.60
2019-02-28T03:50:02.979Z,40.50
2019-02-28T03:52:50.901Z,41.67
2019-02-28T03:55:40.778Z,41.20
2019-02-28T03:58:21.818Z,42.33
2019-02-28T04:01:08.782Z,42.87
2019-02-28T04:03:44.312Z,43.30
2019-02-28T04:06:25.295Z,41.83
2019-02-28T04:08:54.149Z,42.20
2019-02-28T04:11:42.050Z,41.37
2019-02-28T04:14:33.040Z,41.33
2019-02-28T04:19:29.559Z,41.37
2019-02-28T04:22:19.593Z,41.80
2019-02-28T04:30:33.668Z,44.27
2019-02-28T04:33:02.505Z,42.73
2019-02-28T04:35:31.299Z,41.60
2019-02-28T04:37:59.878Z,42.80
2019-02-28T04:40:28.535Z,43.63
2019-02-28T04:43:16.438Z,45.43
2019-02-28T04:46:04.407Z,40.77
2019-02-28T04:48:52.731Z,43.60
2019-02-28T04:51:21.757Z,42.67
2019-02-28T04:53:52.923Z,43.70
2019-02-28T04:56:20.882Z,43.20
2019-02-28T04:59:02.223Z,44.17
2019-02-28T05:01:45.295Z,42.37
2019-02-28T05:04:13.367Z,42.50
2019-02-28T05:07:01.271Z,41.53
2019-02-28T05:09:49.465Z,43.77
2019-02-28T05:12:18.091Z,42.27
2019-02-28T05:14:46.653Z,41.37
2019-02-28T05:17:15.275Z,44.73
2019-02-28T05:20:03.185Z,41.33
2019-02-28T05:22:51.346Z,44.63
2019-02-28T05:25:39.174Z,40.90
2019-02-28T05:28:07.554Z,41.33
2019-02-28T05:30:36.205Z,43.47
2019-02-28T05:33:06.694Z,43.80
2019-02-28T05:38:33.344Z,42.93
2019-02-28T05:41:02.226Z,42.23
2019-02-28T05:43:32.176Z,44.23
2019-02-28T05:46:23.658Z,42.93
2019-02-28T05:49:10.507Z,43.83
2019-02-28T05:51:59.213Z,42.23
2019-02-28T05:54:50.428Z,42.70
2019-02-28T05:57:39.399Z,43.90
2019-02-28T06:00:21.015Z,45.20
2019-02-28T06:03:02.622Z,43.80
2019-02-28T06:05:43.521Z,44.13
2019-02-28T06:08:25.927Z,42.10
2019-02-28T06:11:07.234Z,43.87
2019-02-28T06:13:37.125Z,44.23
2019-02-28T06:16:26.388Z,40.53
2019-02-28T06:18:55.076Z,42.30
2019-02-28T06:21:24.288Z,42.77
2019-02-28T06:24:13.509Z,42.60
2019-02-28T06:27:03.751Z,45.40
2019-02-28T06:32:07.863Z,47.10
2019-02-28T06:34:55.781Z,46.43
2019-02-28T06:37:24.398Z,45.37
2019-02-28T06:40:12.713Z,44.50
2019-02-28T06:43:00.703Z,44.27
2019-02-28T06:45:48.645Z,46.43
2019-02-28T06:48:17.398Z,42.80
2019-02-28T06:50:46.011Z,43.50
2019-02-28T06:53:36.529Z,41.83
2019-02-28T06:56:05.295Z,43.87
2019-02-28T06:58:53.654Z,41.10
2019-02-28T07:01:34.365Z,46.10
2019-02-28T07:04:15.290Z,43.83
2019-02-28T07:06:43.905Z,43.10
2019-02-28T07:09:33.553Z,42.60
2019-02-28T07:12:21.958Z,43.43
2019-02-28T07:14:50.563Z,41.87
2019-02-28T07:17:19.155Z,44.77
2019-02-28T07:20:09.621Z,43.97
2019-02-28T07:22:57.286Z,42.37
2019-02-28T07:25:25.906Z,42.43
2019-02-28T07:28:13.828Z,42.43
2019-02-28T07:31:02.049Z,42.63
2019-02-28T07:33:30.883Z,42.33
2019-02-28T07:36:19.083Z,41.20
2019-02-28T07:39:07.072Z,41.03
2019-02-28T07:41:55.358Z,44.50
2019-02-28T07:44:23.963Z,45.57
2019-02-28T07:47:17.126Z,42.53
2019-02-28T07:52:11.322Z,44.60
2019-02-28T07:54:59.239Z,48.07
2019-02-28T07:57:50.966Z,47.43
2019-02-28T08:00:29.367Z,47.77
2019-02-28T08:03:11.205Z,44.20
2019-02-28T08:05:53.214Z,48.33
2019-02-28T08:08:23.393Z,48.00
2019-02-28T08:13:21.490Z,50.23
2019-02-28T08:15:50.068Z,47.20
2019-02-28T08:18:18.865Z,48.67
2019-02-28T08:23:43.271Z,51.63
2019-02-28T08:26:11.863Z,47.60
2019-02-28T08:29:00.155Z,45.13
2019-02-28T08:31:48.363Z,48.07
2019-02-28T08:34:36.565Z,46.10
2019-02-28T08:37:05.157Z,46.47
2019-02-28T08:39:53.621Z,49.57
2019-02-28T08:42:22.447Z,45.97
2019-02-28T08:45:11.552Z,49.40
2019-02-28T08:47:59.715Z,47.53
2019-02-28T08:50:28.517Z,48.80
2019-02-28T08:53:16.735Z,50.97
2019-02-28T08:56:04.740Z,48.27
2019-02-28T08:58:53.131Z,49.30
2019-02-28T09:01:34.001Z,49.10
2019-02-28T09:04:15.127Z,52.43
2019-02-28T09:06:43.769Z,52.53
2019-02-28T09:09:14.600Z,47.67
2019-02-28T09:14:31.394Z,47.87
2019-02-28T09:17:19.435Z,49.57
2019-02-28T09:20:10.576Z,47.90
2019-02-28T09:22:38.039Z,50.07
2019-02-28T09:25:08.662Z,45.03
2019-02-28T09:27:56.632Z,46.30
2019-02-28T09:30:44.567Z,43.93
2019-02-28T09:33:32.604Z,52.57
2019-02-28T09:36:21.643Z,48.40
2019-02-28T09:47:14.633Z,48.20
2019-02-28T09:49:44.288Z,47.87
2019-02-28T09:52:13.579Z,51.00
2019-02-28T09:55:02.047Z,49.87
2019-02-28T09:57:30.656Z,47.37
2019-02-28T09:59:59.309Z,48.57
2019-02-28T10:02:40.404Z,41.93
2019-02-28T10:05:11.785Z,39.30
2019-02-28T10:07:41.612Z,42.50
2019-02-28T10:10:29.552Z,42.37
2019-02-28T10:12:58.693Z,41.77
2019-02-28T10:15:47.581Z,40.70
2019-02-28T10:18:16.490Z,42.30
2019-02-28T10:21:05.080Z,39.43
2019-02-28T10:23:56.594Z,38.87
2019-02-28T10:29:17.827Z,39.07
2019-02-28T10:32:06.172Z,40.43
2019-02-28T10:34:58.335Z,37.80
2019-02-28T10:37:45.135Z,36.53
2019-02-28T10:40:17.928Z,37.63
2019-02-28T10:45:53.862Z,35.63
2019-02-28T10:48:22.497Z,39.80
2019-02-28T10:50:51.131Z,38.80
2019-02-28T10:53:40.140Z,40.20
2019-02-28T10:56:31.686Z,39.90
2019-02-28T11:01:47.240Z,37.63
2019-02-28T11:04:15.827Z,41.30
2019-02-28T11:06:46.747Z,41.43
2019-02-28T11:12:09.479Z,44.70
2019-02-28T11:14:57.422Z,39.80
2019-02-28T11:17:26.119Z,37.70
2019-02-28T11:20:21.831Z,38.17
2019-02-28T11:22:44.438Z,38.97
2019-02-28T11:25:35.502Z,41.50
2019-02-28T11:28:02.724Z,41.47
2019-02-28T11:30:50.733Z,38.00
2019-02-28T11:33:19.448Z,37.17
2019-02-28T11:36:07.529Z,35.27
2019-02-28T11:38:56.091Z,36.97
2019-02-28T11:41:44.250Z,37.90
2019-02-28T11:44:32.459Z,39.27
2019-02-28T11:47:01.040Z,40.80
2019-02-28T11:49:49.327Z,42.20
2019-02-28T11:52:17.935Z,39.50
2019-02-28T11:54:46.562Z,38.30
2019-02-28T11:57:40.867Z,41.83
2019-02-28T12:00:27.135Z,41.57
2019-02-28T12:03:08.064Z,40.77
2019-02-28T12:05:50.682Z,38.00
2019-02-28T12:08:19.203Z,38.57
2019-02-28T12:11:07.207Z,39.57
2019-02-28T12:13:35.802Z,39.17
2019-02-28T12:16:04.388Z,39.63
2019-02-28T12:18:32.974Z,37.00
2019-02-28T12:21:03.551Z,36.47
2019-02-28T12:26:21.122Z,35.40
2019-02-28T12:28:49.719Z,36.87
2019-02-28T12:31:18.385Z,38.30
2019-02-28T12:33:47.071Z,38.70
2019-02-28T12:36:15.692Z,37.90
2019-02-28T12:39:04.159Z,36.23
2019-02-28T12:41:52.352Z,36.87
2019-02-28T12:44:40.347Z,34.13
2019-02-28T12:47:09.166Z,33.20
2019-02-28T12:49:37.742Z,35.53
2019-02-28T12:52:06.356Z,36.50
2019-02-28T12:54:54.267Z,35.53
2019-02-28T12:57:42.559Z,35.03
2019-02-28T13:00:34.358Z,36.43
2019-02-28T13:03:19.275Z,36.00
2019-02-28T13:05:47.842Z,36.83
2019-02-28T13:08:16.018Z,38.17
2019-02-28T13:10:45.064Z,34.13
2019-02-28T13:13:33.072Z,35.10
2019-02-28T13:16:01.722Z,37.20
2019-02-28T13:18:49.702Z,36.67
2019-02-28T13:21:37.703Z,35.87
2019-02-28T13:24:09.700Z,33.70
2019-02-28T13:29:06.011Z,39.50
2019-02-28T13:31:35.625Z,40.70
2019-02-28T13:34:25.048Z,35.73
2019-02-28T13:37:13.601Z,42.13
2019-02-28T13:39:42.265Z,40.57
2019-02-28T13:42:30.183Z,41.23
2019-02-28T13:45:23.267Z,40.60
2019-02-28T13:47:48.765Z,41.00
2019-02-28T13:50:37.047Z,40.03
2019-02-28T13:53:27.053Z,41.50
2019-02-28T13:58:53.801Z,40.20
2019-02-28T14:01:40.715Z,40.27
2019-02-28T14:04:26.109Z,37.10
2019-02-28T14:07:03.200Z,39.70
2019-02-28T14:09:44.417Z,42.10
2019-02-28T14:12:13.050Z,43.43
2019-02-28T14:15:01.059Z,44.27
2019-02-28T14:17:48.999Z,39.23
2019-02-28T14:20:17.723Z,44.17
2019-02-28T14:23:05.656Z,44.27
2019-02-28T14:25:53.621Z,43.07
2019-02-28T14:28:41.827Z,40.60
2019-02-28T14:34:04.322Z,41.67
2019-02-28T14:36:52.257Z,41.27
2019-02-28T14:39:20.841Z,39.30
2019-02-28T14:42:08.814Z,38.87
2019-02-28T14:44:56.728Z,38.57
2019-02-28T14:47:28.464Z,40.77
2019-02-28T14:49:55.683Z,40.70
2019-02-28T14:52:43.737Z,39.03
2019-02-28T14:55:32.537Z,43.43
2019-02-28T15:00:56.353Z,42.23
2019-02-28T15:03:37.519Z,42.17
2019-02-28T15:06:18.717Z,42.90
2019-02-28T15:08:55.800Z,41.00
2019-02-28T15:11:46.857Z,39.07
2019-02-28T15:14:33.693Z,38.40
2019-02-28T15:17:21.880Z,41.63
2019-02-28T15:20:11.374Z,42.47
2019-02-28T15:22:59.789Z,40.50
2019-02-28T15:25:28.452Z,42.00
2019-02-28T15:28:16.718Z,42.87
2019-02-28T15:31:05.757Z,41.40
2019-02-28T15:33:35.493Z,43.80
2019-02-28T15:36:24.265Z,42.13
2019-02-28T15:39:16.990Z,40.07
2019-02-28T15:41:43.646Z,40.00
2019-02-28T15:44:13.112Z,46.20
2019-02-28T15:47:01.016Z,45.07
2019-02-28T15:49:29.929Z,47.10
2019-02-28T15:51:58.515Z,43.63
2019-02-28T15:54:46.416Z,41.57
2019-02-28T15:57:15.283Z,42.97
2019-02-28T15:59:46.737Z,44.20
2019-02-28T16:02:33.958Z,44.20
2019-02-28T16:05:14.549Z,43.07
2019-02-28T16:07:55.312Z,42.07
2019-02-28T16:10:35.879Z,45.97
2019-02-28T16:13:16.584Z,43.93
2019-02-28T16:15:57.008Z,15.23
2019-02-28T16:18:43.989Z,23.67
2019-02-28T16:21:24.870Z,19.37
2019-02-28T16:23:53.605Z,31.27
2019-02-28T16:26:41.503Z,23.87
2019-02-28T16:29:29.696Z,25.50
2019-02-28T16:32:17.887Z,26.60
2019-02-28T16:34:46.526Z,24.77
2019-02-28T16:37:35.061Z,24.63
2019-02-28T16:42:39.977Z,25.57
2019-02-28T16:45:47.013Z,23.07
2019-02-28T16:48:36.621Z,23.30
2019-02-28T16:53:53.872Z,23.83
2019-02-28T16:56:41.923Z,22.47
2019-02-28T16:59:10.863Z,22.50
2019-02-28T17:01:59.561Z,22.23
2019-02-28T17:07:44.500Z,22.57
2019-02-28T17:10:30.763Z,21.47
2019-02-28T17:13:30.856Z,20.53
2019-02-28T17:16:33.768Z,22.10
2019-02-28T17:19:13.599Z,20.80
2019-02-28T17:21:54.067Z,19.20
2019-02-28T17:24:35.507Z,21.33
2019-02-28T17:32:57.195Z,19.77
2019-02-28T17:35:38.084Z,20.13
2019-02-28T17:38:19.235Z,18.53
2019-02-28T17:41:01.904Z,19.90
2019-02-28T17:43:42.591Z,18.50
2019-02-28T17:46:25.349Z,18.50
2019-02-28T17:49:05.745Z,18.90
2019-02-28T17:51:46.510Z,18.50
2019-02-28T17:54:27.556Z,17.90
2019-02-28T17:57:08.372Z,17.77
2019-02-28T17:59:49.031Z,17.07
2019-02-28T18:02:29.883Z,17.27
2019-02-28T18:05:10.457Z,17.10
2019-02-28T18:10:33.549Z,18.00
2019-02-28T18:13:16.182Z,17.57
2019-02-28T18:15:56.691Z,16.63
2019-02-28T18:18:37.423Z,17.30
2019-02-28T18:21:17.826Z,16.50
2019-02-28T18:24:00.175Z,15.33
2019-02-28T18:26:41.695Z,16.80
2019-02-28T18:29:22.833Z,16.50
2019-02-28T18:32:03.561Z,16.37
2019-02-28T18:34:44.278Z,15.90
2019-02-28T18:37:25.433Z,15.80
2019-02-28T18:40:05.932Z,16.13
2019-02-28T18:42:46.737Z,14.80
2019-02-28T18:45:27.510Z,15.83
2019-02-28T18:48:08.144Z,15.30
2019-02-28T18:50:48.992Z,16.00
2019-02-28T18:53:17.663Z,15.30
2019-02-28T18:56:05.635Z,16.37
2019-02-28T18:58:53.808Z,15.97
2019-02-28T19:01:41.758Z,15.60
2019-02-28T19:04:22.345Z,16.20
2019-02-28T19:07:02.713Z,17.43
2019-02-28T19:09:31.397Z,16.60
2019-02-28T19:12:19.319Z,16.37
2019-02-28T19:15:07.324Z,17.07
2019-02-28T19:17:55.283Z,16.40
2019-02-28T19:20:43.230Z,16.03
2019-02-28T19:23:31.105Z,18.20
2019-02-28T19:26:18.996Z,17.13
2019-02-28T19:29:07.191Z,17.57
2019-02-28T19:31:55.128Z,17.97
2019-02-28T19:34:43.063Z,17.23
2019-02-28T19:37:30.988Z,18.77
2019-02-28T19:40:18.907Z,19.17
2019-02-28T19:43:06.820Z,17.40
2019-02-28T19:45:54.905Z,16.77
2019-02-28T19:48:42.873Z,17.00
2019-02-28T19:54:24.620Z,17.17
2019-02-28T19:57:12.547Z,17.23
2019-02-28T20:00:00.785Z,18.03
2019-02-28T20:05:35.498Z,15.73
2019-02-28T20:08:15.976Z,16.53
2019-02-28T20:10:56.838Z,16.43
2019-02-28T20:13:37.875Z,16.47
2019-02-28T20:16:18.967Z,16.20
2019-02-28T20:18:59.606Z,17.10
2019-02-28T20:21:39.960Z,15.20
2019-02-28T20:24:20.706Z,18.77
2019-02-28T20:27:01.153Z,18.03
2019-02-28T20:29:42.006Z,16.30
2019-02-28T20:32:22.824Z,17.43
2019-02-28T20:35:03.480Z,17.33
2019-02-28T20:37:44.010Z,17.47
2019-02-28T20:40:24.952Z,17.07
2019-02-28T20:43:05.714Z,16.20
2019-02-28T20:45:46.115Z,18.33
2019-02-28T20:48:26.936Z,18.03
2019-02-28T20:51:07.794Z,16.80
2019-02-28T20:53:48.124Z,16.47
2019-02-28T20:56:28.787Z,17.43
2019-02-28T20:59:09.656Z,17.97
2019-02-28T21:01:50.594Z,18.10
2019-02-28T21:04:31.549Z,18.17
2019-02-28T21:07:12.012Z,16.80
2019-02-28T21:09:50.974Z,16.10
2019-02-28T21:12:38.912Z,16.43
2019-02-28T21:15:26.810Z,16.90
2019-02-28T21:21:08.281Z,16.27
2019-02-28T21:23:56.227Z,16.83
2019-02-28T21:26:44.143Z,16.37
2019-02-28T21:29:32.092Z,16.03
2019-02-28T21:32:20.688Z,15.80
2019-02-28T21:38:02.837Z,14.87
2019-02-28T21:43:44.790Z,15.80
2019-02-28T21:46:32.729Z,15.93
2019-02-28T21:49:20.627Z,16.27
2019-02-28T21:52:08.571Z,16.10
2019-02-28T21:54:56.477Z,14.60
2019-02-28T21:57:44.668Z,16.00
2019-02-28T22:00:32.675Z,16.00
2019-02-28T22:03:21.215Z,15.67
2019-02-28T22:06:09.151Z,15.83
2019-02-28T22:08:49.829Z,15.27
2019-02-28T22:11:31.045Z,15.77
2019-02-28T22:14:11.915Z,15.23
2019-02-28T22:16:52.959Z,14.80
2019-02-28T22:19:31.985Z,14.90
2019-02-28T22:22:19.932Z,14.80
2019-02-28T22:25:08.452Z,15.10
2019-02-28T22:27:58.217Z,15.47
2019-02-28T22:36:45.044Z,15.60
2019-02-28T22:39:33.188Z,14.37
2019-02-28T22:45:15.063Z,14.27
2019-02-28T22:48:03.258Z,14.67
2019-02-28T22:50:51.392Z,15.27
2019-02-28T22:56:33.571Z,13.23
2019-02-28T22:59:21.515Z,14.27
2019-02-28T23:05:16.543Z,14.57
2019-02-28T23:07:57.700Z,14.37
2019-02-28T23:10:38.567Z,14.43
2019-02-28T23:13:19.360Z,14.87
2019-02-28T23:15:59.781Z,15.50
2019-02-28T23:18:40.415Z,13.73
2019-02-28T23:21:21.384Z,15.03
2019-02-28T23:24:02.084Z,14.17
2019-02-28T23:26:43.129Z,13.97
2019-02-28T23:29:23.765Z,13.50
2019-02-28T23:32:04.491Z,13.77
2019-02-28T23:34:45.656Z,14.50
2019-02-28T23:37:26.668Z,13.70
2019-02-28T23:40:07.726Z,13.77
2019-02-28T23:42:48.596Z,13.23
2019-02-28T23:45:29.772Z,14.10
2019-02-28T23:48:10.904Z,14.57
2019-02-28T23:50:51.989Z,14.17
2019-02-28T23:53:33.182Z,12.83
2019-02-28T23:56:13.544Z,13.20
2019-02-28T23:58:54.726Z,14.70
